Time,TemperatureF,DewpointF,PressureIn,WindDirection,WindDirectionDegrees,WindSpeedMPH,WindSpeedGustMPH,Humidity,HourlyPrecipIn,Conditions,Clouds,dailyrainin,SoftwareType,DateUTC
2013-06-04 00:02:00,54.1,45.0,29.81,WNW,297,2.0,7.0,72,0.00,,,0.00,weatherlink.com 1.10,2013-06-04 04:02:00,
2013-06-04 00:17:00,53.7,45.0,29.81,West,273,3.0,6.0,73,0.00,,,0.00,weatherlink.com 1.10,2013-06-04 04:17:00,
2013-06-04 00:32:00,52.9,45.0,29.81,WSW,240,0.0,7.0,74,0.00,,,0.00,weatherlink.com 1.10,2013-06-04 04:32:00,
2013-06-04 00:47:00,52.4,45.0,29.81,WSW,239,0.0,8.0,75,0.00,,,0.00,weatherlink.com 1.10,2013-06-04 04:47:00,
2013-06-04 01:02:00,52.0,45.0,29.82,West,266,1.0,10.0,76,0.00,,,0.00,weatherlink.com 1.10,2013-06-04 05:02:00,
2013-06-04 01:18:00,51.8,44.0,29.82,West,274,4.0,12.0,74,0.00,,,0.00,weatherlink.com 1.10,2013-06-04 05:18:00,
2013-06-04 01:33:00,51.3,43.0,29.82,North,352,1.0,8.0,74,0.00,,,0.00,weatherlink.com 1.10,2013-06-04 05:33:00,
2013-06-04 01:48:00,51.0,42.0,29.82,West,280,2.0,6.0,72,0.00,,,0.00,weatherlink.com 1.10,2013-06-04 05:48:00,
2013-06-04 02:03:00,50.7,42.0,29.83,WNW,294,3.0,6.0,71,0.00,,,0.00,weatherlink.com 1.10,2013-06-04 06:03:00,
2013-06-04 02:18:00,50.4,41.0,29.83,WNW,286,0.0,9.0,69,0.00,,,0.00,weatherlink.com 1.10,2013-06-04 06:18:00,
2013-06-04 02:33:00,50.6,40.0,29.83,NW,309,5.0,10.0,67,0.00,,,0.00,weatherlink.com 1.10,2013-06-04 06:33:00,
2013-06-04 02:48:00,50.1,39.0,29.83,WNW,294,3.0,7.0,65,0.00,,,0.00,weatherlink.com 1.10,2013-06-04 06:48:00,
2013-06-04 03:03:00,49.7,39.0,29.83,SW,235,1.0,6.0,66,0.00,,,0.00,weatherlink.com 1.10,2013-06-04 07:03:00,
2013-06-04 03:18:00,48.9,39.0,29.83,WNW,300,0.0,5.0,69,0.00,,,0.00,weatherlink.com 1.10,2013-06-04 07:18:00,
2013-06-04 03:33:00,49.6,38.0,29.83,SE,146,1.0,9.0,64,0.00,,,0.00,weatherlink.com 1.10,2013-06-04 07:33:00,
2013-06-04 03:48:00,49.6,38.0,29.83,SSE,150,1.0,4.0,65,0.00,,,0.00,weatherlink.com 1.10,2013-06-04 07:48:00,
2013-06-04 04:03:00,47.5,39.0,29.83,ESE,108,1.0,2.0,72,0.00,,,0.00,weatherlink.com 1.10,2013-06-04 08:03:00,
2013-06-04 04:18:00,46.2,39.0,29.83,East,88,0.0,2.0,76,0.00,,,0.00,weatherlink.com 1.10,2013-06-04 08:18:00,
2013-06-04 04:33:00,45.0,39.0,29.83,East,101,0.0,1.0,80,0.00,,,0.00,weatherlink.com 1.10,2013-06-04 08:33:00,
2013-06-04 04:48:00,44.7,39.0,29.84,SE,124,0.0,2.0,80,0.00,,,0.00,weatherlink.com 1.10,2013-06-04 08:48:00,
2013-06-04 05:03:00,43.4,39.0,29.84,ESE,103,0.0,1.0,84,0.00,,,0.00,weatherlink.com 1.10,2013-06-04 09:03:00,
2013-06-04 05:18:00,43.7,39.0,29.84,SE,129,0.0,2.0,83,0.00,,,0.00,weatherlink.com 1.10,2013-06-04 09:18:00,
2013-06-04 05:33:00,43.3,39.0,29.86,East,101,0.0,2.0,85,0.00,,,0.00,weatherlink.com 1.10,2013-06-04 09:33:00,
2013-06-04 05:48:00,43.5,40.0,29.86,East,82,0.0,2.0,86,0.00,,,0.00,weatherlink.com 1.10,2013-06-04 09:48:00,
2013-06-04 06:03:00,44.3,40.0,29.86,ESE,121,4.0,4.0,85,0.00,,,0.00,weatherlink.com 1.10,2013-06-04 10:03:00,
2013-06-04 06:18:00,48.2,40.0,29.87,SW,236,0.0,5.0,74,0.00,,,0.00,weatherlink.com 1.10,2013-06-04 10:18:00,
2013-06-04 06:33:00,48.8,41.0,29.87,ENE,77,1.0,3.0,75,0.00,,,0.00,weatherlink.com 1.10,2013-06-04 10:33:00,
2013-06-04 06:48:00,49.7,40.0,29.88,WSW,248,4.0,5.0,70,0.00,,,0.00,weatherlink.com 1.10,2013-06-04 10:48:00,
2013-06-04 07:03:00,51.7,41.0,29.88,SW,230,2.0,8.0,66,0.00,,,0.00,weatherlink.com 1.10,2013-06-04 11:03:00,
2013-06-04 07:18:00,52.4,42.0,29.88,North,5,3.0,8.0,68,0.00,,,0.00,weatherlink.com 1.10,2013-06-04 11:18:00,
2013-06-04 07:33:00,52.7,41.0,29.88,WNW,298,4.0,9.0,65,0.00,,,0.00,weatherlink.com 1.10,2013-06-04 11:33:00,
2013-06-04 07:49:00,53.2,42.0,29.88,WSW,239,7.0,10.0,66,0.00,,,0.00,weatherlink.com 1.10,2013-06-04 11:49:00,
2013-06-04 08:04:00,54.7,44.0,29.88,NNE,20,1.0,6.0,67,0.00,,,0.00,weatherlink.com 1.10,2013-06-04 12:04:00,
2013-06-04 08:19:00,55.3,42.0,29.88,ESE,122,0.0,5.0,62,0.00,,,0.00,weatherlink.com 1.10,2013-06-04 12:19:00,
2013-06-04 08:34:00,56.5,44.0,29.88,WSW,247,1.0,5.0,64,0.00,,,0.00,weatherlink.com 1.10,2013-06-04 12:34:00,
2013-06-04 08:49:00,57.1,44.0,29.89,NNE,20,3.0,11.0,63,0.00,,,0.00,weatherlink.com 1.10,2013-06-04 12:49:00,
2013-06-04 09:04:00,57.5,44.0,29.89,WNW,295,5.0,11.0,60,0.00,,,0.00,weatherlink.com 1.10,2013-06-04 13:04:00,
2013-06-04 09:19:00,57.3,43.0,29.89,West,277,2.0,14.0,59,0.00,,,0.00,weatherlink.com 1.10,2013-06-04 13:19:00,
2013-06-04 09:34:00,57.5,44.0,29.88,West,274,2.0,12.0,61,0.00,,,0.00,weatherlink.com 1.10,2013-06-04 13:34:00,
2013-06-04 09:49:00,57.8,43.0,29.88,WSW,253,13.0,13.0,59,0.00,,,0.00,weatherlink.com 1.10,2013-06-04 13:49:00,
2013-06-04 10:04:00,58.8,43.0,29.88,North,358,2.0,11.0,57,0.00,,,0.00,weatherlink.com 1.10,2013-06-04 14:04:00,
2013-06-04 10:19:00,59.3,43.0,29.89,WNW,288,3.0,10.0,56,0.00,,,0.00,weatherlink.com 1.10,2013-06-04 14:19:00,
2013-06-04 10:34:00,59.2,44.0,29.89,West,277,3.0,11.0,57,0.00,,,0.00,weatherlink.com 1.10,2013-06-04 14:34:00,
2013-06-04 10:49:00,59.9,43.0,29.89,WSW,246,3.0,11.0,55,0.00,,,0.00,weatherlink.com 1.10,2013-06-04 14:49:00,
2013-06-04 11:04:00,59.5,43.0,29.89,West,273,7.0,12.0,55,0.00,,,0.00,weatherlink.com 1.10,2013-06-04 15:04:00,
2013-06-04 11:19:00,60.6,44.0,29.90,NW,307,10.0,16.0,54,0.00,,,0.00,weatherlink.com 1.10,2013-06-04 15:19:00,
2013-06-04 11:34:00,60.5,44.0,29.90,SW,224,5.0,11.0,54,0.00,,,0.00,weatherlink.com 1.10,2013-06-04 15:34:00,
2013-06-04 11:49:00,61.5,44.0,29.90,SW,233,6.0,14.0,53,0.00,,,0.00,weatherlink.com 1.10,2013-06-04 15:49:00,
2013-06-04 12:04:00,62.7,46.0,29.91,WNW,287,8.0,12.0,54,0.00,,,0.00,weatherlink.com 1.10,2013-06-04 16:04:00,
2013-06-04 12:19:00,62.5,43.0,29.91,WSW,258,10.0,12.0,50,0.00,,,0.00,weatherlink.com 1.10,2013-06-04 16:19:00,
2013-06-04 12:34:00,63.3,44.0,29.91,West,267,13.0,18.0,49,0.00,,,0.00,weatherlink.com 1.10,2013-06-04 16:34:00,
2013-06-04 12:49:00,62.9,43.0,29.91,NNW,330,7.0,9.0,49,0.00,,,0.00,weatherlink.com 1.10,2013-06-04 16:49:00,
2013-06-04 13:04:00,62.3,44.0,29.92,WNW,287,7.0,13.0,52,0.00,,,0.00,weatherlink.com 1.10,2013-06-04 17:04:00,
2013-06-04 13:19:00,63.9,44.0,29.92,NNE,15,3.0,18.0,49,0.00,,,0.00,weatherlink.com 1.10,2013-06-04 17:19:00,
2013-06-04 13:34:00,62.6,44.0,29.92,West,280,2.0,11.0,51,0.00,,,0.00,weatherlink.com 1.10,2013-06-04 17:34:00,
2013-06-04 13:49:00,63.5,46.0,29.92,WSW,255,2.0,9.0,53,0.00,,,0.00,weatherlink.com 1.10,2013-06-04 17:49:00,
2013-06-04 14:04:00,65.2,45.0,29.92,NNW,329,1.0,9.0,49,0.00,,,0.00,weatherlink.com 1.10,2013-06-04 18:04:00,
2013-06-04 14:19:00,64.6,45.0,29.92,WNW,294,8.0,10.0,49,0.00,,,0.00,weatherlink.com 1.10,2013-06-04 18:19:00,
2013-06-04 14:34:00,64.6,45.0,29.92,West,277,3.0,13.0,50,0.00,,,0.00,weatherlink.com 1.10,2013-06-04 18:34:00,
2013-06-04 14:50:00,64.9,46.0,29.92,WNW,302,3.0,11.0,51,0.00,,,0.00,weatherlink.com 1.10,2013-06-04 18:50:00,
2013-06-04 15:04:00,66.0,46.0,29.92,WNW,295,9.0,14.0,49,0.00,,,0.00,weatherlink.com 1.10,2013-06-04 19:04:00,
2013-06-04 15:20:00,66.0,44.0,29.91,NW,321,5.0,13.0,46,0.00,,,0.00,weatherlink.com 1.10,2013-06-04 19:20:00,
2013-06-04 15:35:00,66.5,47.0,29.91,West,276,3.0,17.0,50,0.00,,,0.00,weatherlink.com 1.10,2013-06-04 19:35:00,
2013-06-04 15:50:00,66.7,47.0,29.91,WSW,243,1.0,14.0,49,0.00,,,0.00,weatherlink.com 1.10,2013-06-04 19:50:00,
2013-06-04 16:05:00,66.6,44.0,29.92,WNW,298,3.0,10.0,45,0.00,,,0.00,weatherlink.com 1.10,2013-06-04 20:05:00,
2013-06-04 16:20:00,66.6,45.0,29.92,WSW,249,4.0,10.0,46,0.00,,,0.00,weatherlink.com 1.10,2013-06-04 20:20:00,
2013-06-04 16:35:00,66.7,45.0,29.92,SSW,201,1.0,14.0,46,0.00,,,0.00,weatherlink.com 1.10,2013-06-04 20:35:00,
2013-06-04 16:50:00,66.9,45.0,29.92,West,271,6.0,10.0,45,0.00,,,0.00,weatherlink.com 1.10,2013-06-04 20:50:00,
2013-06-04 17:05:00,66.9,46.0,29.92,WNW,285,2.0,10.0,47,0.00,,,0.00,weatherlink.com 1.10,2013-06-04 21:05:00,
2013-06-04 17:20:00,67.1,45.0,29.92,West,276,4.0,9.0,46,0.00,,,0.00,weatherlink.com 1.10,2013-06-04 21:20:00,
2013-06-04 17:35:00,67.0,45.0,29.93,NW,323,8.0,12.0,45,0.00,,,0.00,weatherlink.com 1.10,2013-06-04 21:35:00,
2013-06-04 17:50:00,67.3,46.0,29.93,West,278,2.0,6.0,46,0.00,,,0.00,weatherlink.com 1.10,2013-06-04 21:50:00,
2013-06-04 18:05:00,66.9,46.0,29.93,West,274,2.0,11.0,47,0.00,,,0.00,weatherlink.com 1.10,2013-06-04 22:05:00,
2013-06-04 18:20:00,66.7,44.0,29.95,NW,312,4.0,10.0,44,0.00,,,0.00,weatherlink.com 1.10,2013-06-04 22:20:00,
2013-06-04 18:35:00,66.6,45.0,29.95,NW,312,1.0,8.0,46,0.00,,,0.00,weatherlink.com 1.10,2013-06-04 22:35:00,
2013-06-04 18:50:00,66.1,45.0,29.95,West,281,1.0,14.0,47,0.00,,,0.00,weatherlink.com 1.10,2013-06-04 22:50:00,
2013-06-04 19:05:00,65.4,44.0,29.96,West,262,5.0,12.0,47,0.00,,,0.00,weatherlink.com 1.10,2013-06-04 23:05:00,
2013-06-04 19:20:00,65.1,45.0,29.96,West,280,0.0,9.0,48,0.00,,,0.00,weatherlink.com 1.10,2013-06-04 23:20:00,
2013-06-04 19:36:00,64.0,44.0,29.96,WNW,300,3.0,9.0,49,0.00,,,0.00,weatherlink.com 1.10,2013-06-04 23:36:00,
2013-06-04 19:50:00,62.2,45.0,29.98,WSW,257,1.0,6.0,53,0.00,,,0.00,weatherlink.com 1.10,2013-06-04 23:50:00,
2013-06-04 20:05:00,60.8,45.0,29.98,WSW,253,2.0,3.0,56,0.00,,,0.00,weatherlink.com 1.10,2013-06-05 00:05:00,
2013-06-04 20:20:00,59.8,45.0,29.99,West,279,0.0,5.0,59,0.00,,,0.00,weatherlink.com 1.10,2013-06-05 00:20:00,
2013-06-04 20:35:00,58.7,45.0,30.00,West,269,0.0,3.0,60,0.00,,,0.00,weatherlink.com 1.10,2013-06-05 00:35:00,
2013-06-04 20:50:00,58.1,45.0,30.01,West,273,1.0,3.0,62,0.00,,,0.00,weatherlink.com 1.10,2013-06-05 00:50:00,
2013-06-04 21:05:00,57.0,44.0,30.02,WNW,288,0.0,4.0,63,0.00,,,0.00,weatherlink.com 1.10,2013-06-05 01:05:00,
2013-06-04 21:20:00,57.0,45.0,30.02,West,263,2.0,3.0,64,0.00,,,0.00,weatherlink.com 1.10,2013-06-05 01:20:00,
2013-06-04 21:35:00,56.9,45.0,30.03,WNW,283,0.0,3.0,64,0.00,,,0.00,weatherlink.com 1.10,2013-06-05 01:35:00,
2013-06-04 21:50:00,56.0,46.0,30.04,SE,124,0.0,2.0,69,0.00,,,0.00,weatherlink.com 1.10,2013-06-05 01:50:00,
2013-06-04 22:05:00,53.7,46.0,30.05,SE,124,0.0,0.0,74,0.00,,,0.00,weatherlink.com 1.10,2013-06-05 02:05:00,
2013-06-04 22:20:00,52.5,45.0,30.05,SW,228,0.0,1.0,77,0.00,,,0.00,weatherlink.com 1.10,2013-06-05 02:20:00,
2013-06-04 22:35:00,52.5,46.0,30.05,WSW,256,0.0,1.0,78,0.00,,,0.00,weatherlink.com 1.10,2013-06-05 02:35:00,
2013-06-04 22:50:00,51.3,45.0,30.06,WSW,256,0.0,0.0,80,0.00,,,0.00,weatherlink.com 1.10,2013-06-05 02:50:00,
2013-06-04 23:05:00,49.3,45.0,30.07,WSW,256,0.0,0.0,84,0.00,,,0.00,weatherlink.com 1.10,2013-06-05 03:05:00,
2013-06-04 23:20:00,48.0,44.0,30.08,WSW,256,0.0,0.0,87,0.00,,,0.00,weatherlink.com 1.10,2013-06-05 03:20:00,
2013-06-04 23:35:00,47.2,44.0,30.08,WSW,256,0.0,0.0,89,0.00,,,0.00,weatherlink.com 1.10,2013-06-05 03:35:00,
2013-06-04 23:50:00,46.6,44.0,30.09,WSW,256,0.0,1.0,91,0.00,,,0.00,weatherlink.com 1.10,2013-06-05 03:50:00,